sensor_id;sensor_type;location;lat;lon;timestamp;P1;durP1;ratioP1;P2;durP2;ratioP2
5333;SDS011;2689;50.954;7.116;2023-04-22T00:00:17;8.60;;;6.10;;
5333;SDS011;2689;50.954;7.116;2023-04-22T00:02:44;9.63;;;5.80;;
5333;SDS011;2689;50.954;7.116;2023-04-22T00:05:11;7.40;;;6.30;;
5333;SDS011;2689;50.954;7.116;2023-04-22T00:07:38;8.77;;;5.27;;
5333;SDS011;2689;50.954;7.116;2023-04-22T00:10:07;6.87;;;5.10;;
5333;SDS011;2689;50.954;7.116;2023-04-22T00:12:35;8.37;;;6.17;;
5333;SDS011;2689;50.954;7.116;2023-04-22T00:15:04;4.73;;;4.27;;
5333;SDS011;2689;50.954;7.116;2023-04-22T00:17:33;7.47;;;5.20;;
5333;SDS011;2689;50.954;7.116;2023-04-22T00:20:00;5.87;;;4.33;;
5333;SDS011;2689;50.954;7.116;2023-04-22T00:22:27;6.20;;;5.10;;
5333;SDS011;2689;50.954;7.116;2023-04-22T00:24:54;5.93;;;5.03;;
5333;SDS011;2689;50.954;7.116;2023-04-22T00:27:21;6.03;;;4.67;;
5333;SDS011;2689;50.954;7.116;2023-04-22T00:29:48;5.00;;;4.50;;
5333;SDS011;2689;50.954;7.116;2023-04-22T00:32:14;6.67;;;4.70;;
5333;SDS011;2689;50.954;7.116;2023-04-22T00:34:48;5.57;;;4.40;;
5333;SDS011;2689;50.954;7.116;2023-04-22T00:37:14;4.40;;;4.00;;
5333;SDS011;2689;50.954;7.116;2023-04-22T00:39:41;9.10;;;4.60;;
5333;SDS011;2689;50.954;7.116;2023-04-22T00:42:08;6.67;;;4.90;;
5333;SDS011;2689;50.954;7.116;2023-04-22T00:44:35;4.57;;;3.90;;
5333;SDS011;2689;50.954;7.116;2023-04-22T00:47:02;6.20;;;4.50;;
5333;SDS011;2689;50.954;7.116;2023-04-22T00:49:29;7.50;;;4.20;;
5333;SDS011;2689;50.954;7.116;2023-04-22T00:51:58;5.60;;;4.60;;
5333;SDS011;2689;50.954;7.116;2023-04-22T00:54:24;7.30;;;4.00;;
5333;SDS011;2689;50.954;7.116;2023-04-22T00:56:52;5.67;;;4.47;;
5333;SDS011;2689;50.954;7.116;2023-04-22T00:59:20;5.80;;;4.53;;
5333;SDS011;2689;50.954;7.116;2023-04-22T01:01:48;6.20;;;4.20;;
5333;SDS011;2689;50.954;7.116;2023-04-22T01:04:15;5.40;;;4.70;;
5333;SDS011;2689;50.954;7.116;2023-04-22T01:06:43;10.90;;;4.70;;
5333;SDS011;2689;50.954;7.116;2023-04-22T01:09:16;4.57;;;4.13;;
5333;SDS011;2689;50.954;7.116;2023-04-22T01:11:44;6.07;;;4.10;;
5333;SDS011;2689;50.954;7.116;2023-04-22T01:14:12;4.83;;;4.00;;
5333;SDS011;2689;50.954;7.116;2023-04-22T01:16:39;4.97;;;4.47;;
5333;SDS011;2689;50.954;7.116;2023-04-22T01:19:07;5.03;;;4.53;;
5333;SDS011;2689;50.954;7.116;2023-04-22T01:21:38;5.27;;;4.30;;
5333;SDS011;2689;50.954;7.116;2023-04-22T01:24:07;4.60;;;3.73;;
5333;SDS011;2689;50.954;7.116;2023-04-22T01:26:34;4.60;;;4.20;;
5333;SDS011;2689;50.954;7.116;2023-04-22T01:29:04;5.77;;;4.50;;
5333;SDS011;2689;50.954;7.116;2023-04-22T01:31:37;7.33;;;4.07;;
5333;SDS011;2689;50.954;7.116;2023-04-22T01:34:04;4.60;;;4.20;;
5333;SDS011;2689;50.954;7.116;2023-04-22T01:36:31;4.50;;;3.90;;
5333;SDS011;2689;50.954;7.116;2023-04-22T01:38:59;5.33;;;4.03;;
5333;SDS011;2689;50.954;7.116;2023-04-22T01:41:28;4.63;;;4.07;;
5333;SDS011;2689;50.954;7.116;2023-04-22T01:43:55;4.40;;;4.00;;
5333;SDS011;2689;50.954;7.116;2023-04-22T01:46:23;5.20;;;4.17;;
5333;SDS011;2689;50.954;7.116;2023-04-22T01:48:49;4.20;;;3.77;;
5333;SDS011;2689;50.954;7.116;2023-04-22T01:51:16;4.80;;;4.30;;
5333;SDS011;2689;50.954;7.116;2023-04-22T01:53:45;4.90;;;4.37;;
5333;SDS011;2689;50.954;7.116;2023-04-22T01:56:13;4.90;;;3.87;;
5333;SDS011;2689;50.954;7.116;2023-04-22T01:58:41;4.77;;;4.17;;
5333;SDS011;2689;50.954;7.116;2023-04-22T02:01:09;5.33;;;4.13;;
5333;SDS011;2689;50.954;7.116;2023-04-22T02:03:36;6.67;;;4.07;;
5333;SDS011;2689;50.954;7.116;2023-04-22T02:06:03;5.50;;;4.00;;
5333;SDS011;2689;50.954;7.116;2023-04-22T02:08:31;5.40;;;4.00;;
5333;SDS011;2689;50.954;7.116;2023-04-22T02:10:58;8.20;;;4.50;;
5333;SDS011;2689;50.954;7.116;2023-04-22T02:13:25;5.87;;;4.80;;
5333;SDS011;2689;50.954;7.116;2023-04-22T02:15:53;5.37;;;4.47;;
5333;SDS011;2689;50.954;7.116;2023-04-22T02:18:20;4.67;;;4.20;;
5333;SDS011;2689;50.954;7.116;2023-04-22T02:20:47;5.37;;;4.87;;
5333;SDS011;2689;50.954;7.116;2023-04-22T02:23:14;5.77;;;4.07;;
5333;SDS011;2689;50.954;7.116;2023-04-22T02:25:46;4.33;;;3.93;;
5333;SDS011;2689;50.954;7.116;2023-04-22T02:28:13;4.27;;;3.83;;
5333;SDS011;2689;50.954;7.116;2023-04-22T02:30:40;5.30;;;4.00;;
5333;SDS011;2689;50.954;7.116;2023-04-22T02:33:08;5.63;;;4.17;;
5333;SDS011;2689;50.954;7.116;2023-04-22T02:35:35;4.20;;;3.80;;
5333;SDS011;2689;50.954;7.116;2023-04-22T02:38:01;4.80;;;4.37;;
5333;SDS011;2689;50.954;7.116;2023-04-22T02:40:28;5.30;;;3.80;;
5333;SDS011;2689;50.954;7.116;2023-04-22T02:42:55;4.40;;;3.77;;
5333;SDS011;2689;50.954;7.116;2023-04-22T02:45:22;5.20;;;4.00;;
5333;SDS011;2689;50.954;7.116;2023-04-22T02:47:49;6.50;;;4.10;;
5333;SDS011;2689;50.954;7.116;2023-04-22T02:50:17;5.70;;;4.10;;
5333;SDS011;2689;50.954;7.116;2023-04-22T02:52:44;5.70;;;4.10;;
5333;SDS011;2689;50.954;7.116;2023-04-22T02:55:11;6.50;;;3.80;;
5333;SDS011;2689;50.954;7.116;2023-04-22T02:57:38;5.37;;;4.27;;
5333;SDS011;2689;50.954;7.116;2023-04-22T03:00:05;4.70;;;3.93;;
5333;SDS011;2689;50.954;7.116;2023-04-22T03:02:34;4.70;;;4.20;;
5333;SDS011;2689;50.954;7.116;2023-04-22T03:05:01;6.13;;;4.53;;
5333;SDS011;2689;50.954;7.116;2023-04-22T03:07:29;5.77;;;3.77;;
5333;SDS011;2689;50.954;7.116;2023-04-22T03:09:55;4.40;;;4.00;;
5333;SDS011;2689;50.954;7.116;2023-04-22T03:12:23;4.80;;;3.90;;
5333;SDS011;2689;50.954;7.116;2023-04-22T03:14:52;4.83;;;3.60;;
5333;SDS011;2689;50.954;7.116;2023-04-22T03:17:18;4.57;;;4.13;;
5333;SDS011;2689;50.954;7.116;2023-04-22T03:19:45;6.47;;;3.97;;
5333;SDS011;2689;50.954;7.116;2023-04-22T03:22:12;4.80;;;4.10;;
5333;SDS011;2689;50.954;7.116;2023-04-22T03:24:40;6.00;;;4.00;;
5333;SDS011;2689;50.954;7.116;2023-04-22T03:27:08;4.10;;;3.27;;
5333;SDS011;2689;50.954;7.116;2023-04-22T03:29:35;4.20;;;3.73;;
5333;SDS011;2689;50.954;7.116;2023-04-22T03:32:02;5.63;;;3.93;;
5333;SDS011;2689;50.954;7.116;2023-04-22T03:34:28;4.10;;;3.70;;
5333;SDS011;2689;50.954;7.116;2023-04-22T03:36:55;5.30;;;3.60;;
5333;SDS011;2689;50.954;7.116;2023-04-22T03:39:22;4.37;;;3.73;;
5333;SDS011;2689;50.954;7.116;2023-04-22T03:41:50;3.83;;;3.27;;
5333;SDS011;2689;50.954;7.116;2023-04-22T03:44:16;5.13;;;3.87;;
5333;SDS011;2689;50.954;7.116;2023-04-22T03:46:43;4.47;;;3.90;;
5333;SDS011;2689;50.954;7.116;2023-04-22T03:49:10;4.90;;;4.10;;
5333;SDS011;2689;50.954;7.116;2023-04-22T03:51:39;7.23;;;3.20;;
5333;SDS011;2689;50.954;7.116;2023-04-22T03:54:06;4.10;;;3.60;;
5333;SDS011;2689;50.954;7.116;2023-04-22T03:56:33;5.70;;;3.47;;
5333;SDS011;2689;50.954;7.116;2023-04-22T03:59:02;11.30;;;3.60;;
5333;SDS011;2689;50.954;7.116;2023-04-22T04:01:28;5.23;;;4.20;;
5333;SDS011;2689;50.954;7.116;2023-04-22T04:03:55;5.43;;;3.47;;
5333;SDS011;2689;50.954;7.116;2023-04-22T04:06:22;3.43;;;3.10;;
5333;SDS011;2689;50.954;7.116;2023-04-22T04:08:48;3.97;;;3.40;;
5333;SDS011;2689;50.954;7.116;2023-04-22T04:11:15;3.63;;;3.23;;
5333;SDS011;2689;50.954;7.116;2023-04-22T04:13:42;4.70;;;2.80;;
5333;SDS011;2689;50.954;7.116;2023-04-22T04:16:10;4.53;;;3.57;;
5333;SDS011;2689;50.954;7.116;2023-04-22T04:18:37;3.47;;;3.17;;
5333;SDS011;2689;50.954;7.116;2023-04-22T04:21:04;3.60;;;3.23;;
5333;SDS011;2689;50.954;7.116;2023-04-22T04:23:31;4.30;;;3.00;;
5333;SDS011;2689;50.954;7.116;2023-04-22T04:25:57;3.87;;;2.50;;
5333;SDS011;2689;50.954;7.116;2023-04-22T04:28:26;3.30;;;2.97;;
5333;SDS011;2689;50.954;7.116;2023-04-22T04:30:56;3.40;;;2.90;;
5333;SDS011;2689;50.954;7.116;2023-04-22T04:33:24;2.77;;;2.57;;
5333;SDS011;2689;50.954;7.116;2023-04-22T04:35:53;3.30;;;2.77;;
5333;SDS011;2689;50.954;7.116;2023-04-22T04:38:20;5.93;;;3.00;;
5333;SDS011;2689;50.954;7.116;2023-04-22T04:40:47;3.20;;;2.80;;
5333;SDS011;2689;50.954;7.116;2023-04-22T04:43:16;3.80;;;2.93;;
5333;SDS011;2689;50.954;7.116;2023-04-22T04:45:42;2.83;;;2.63;;
5333;SDS011;2689;50.954;7.116;2023-04-22T04:48:10;3.03;;;2.73;;
5333;SDS011;2689;50.954;7.116;2023-04-22T04:50:39;3.90;;;3.20;;
5333;SDS011;2689;50.954;7.116;2023-04-22T04:53:07;4.03;;;2.70;;
5333;SDS011;2689;50.954;7.116;2023-04-22T04:55:34;3.57;;;3.00;;
5333;SDS011;2689;50.954;7.116;2023-04-22T04:58:07;3.20;;;2.90;;
5333;SDS011;2689;50.954;7.116;2023-04-22T05:00:34;5.60;;;2.87;;
5333;SDS011;2689;50.954;7.116;2023-04-22T05:03:06;3.53;;;2.80;;
5333;SDS011;2689;50.954;7.116;2023-04-22T05:05:33;3.03;;;2.60;;
5333;SDS011;2689;50.954;7.116;2023-04-22T05:08:01;4.20;;;2.90;;
5333;SDS011;2689;50.954;7.116;2023-04-22T05:10:28;3.40;;;2.60;;
5333;SDS011;2689;50.954;7.116;2023-04-22T05:12:55;4.83;;;2.97;;
5333;SDS011;2689;50.954;7.116;2023-04-22T05:15:22;4.70;;;2.50;;
5333;SDS011;2689;50.954;7.116;2023-04-22T05:17:49;4.93;;;2.77;;
5333;SDS011;2689;50.954;7.116;2023-04-22T05:20:15;3.20;;;2.50;;
5333;SDS011;2689;50.954;7.116;2023-04-22T05:22:42;4.00;;;2.33;;
5333;SDS011;2689;50.954;7.116;2023-04-22T05:25:11;4.20;;;2.83;;
5333;SDS011;2689;50.954;7.116;2023-04-22T05:27:38;4.83;;;4.00;;
5333;SDS011;2689;50.954;7.116;2023-04-22T05:30:06;4.20;;;2.70;;
5333;SDS011;2689;50.954;7.116;2023-04-22T05:32:33;3.57;;;2.43;;
5333;SDS011;2689;50.954;7.116;2023-04-22T05:35:02;3.50;;;2.87;;
5333;SDS011;2689;50.954;7.116;2023-04-22T05:37:30;4.30;;;2.53;;
5333;SDS011;2689;50.954;7.116;2023-04-22T05:39:59;3.20;;;2.67;;
5333;SDS011;2689;50.954;7.116;2023-04-22T05:42:27;3.90;;;2.77;;
5333;SDS011;2689;50.954;7.116;2023-04-22T05:44:53;3.07;;;2.50;;
5333;SDS011;2689;50.954;7.116;2023-04-22T05:47:22;3.30;;;2.43;;
5333;SDS011;2689;50.954;7.116;2023-04-22T05:49:49;3.07;;;2.50;;
5333;SDS011;2689;50.954;7.116;2023-04-22T05:52:16;2.60;;;2.40;;
5333;SDS011;2689;50.954;7.116;2023-04-22T05:54:43;4.60;;;2.73;;
5333;SDS011;2689;50.954;7.116;2023-04-22T05:57:10;2.47;;;2.27;;
5333;SDS011;2689;50.954;7.116;2023-04-22T05:59:38;3.27;;;2.40;;
5333;SDS011;2689;50.954;7.116;2023-04-22T06:02:04;4.90;;;3.57;;
5333;SDS011;2689;50.954;7.116;2023-04-22T06:04:31;2.80;;;2.40;;
5333;SDS011;2689;50.954;7.116;2023-04-22T06:06:58;4.40;;;2.90;;
5333;SDS011;2689;50.954;7.116;2023-04-22T06:09:25;6.33;;;3.27;;
5333;SDS011;2689;50.954;7.116;2023-04-22T06:11:51;3.57;;;2.70;;
5333;SDS011;2689;50.954;7.116;2023-04-22T06:14:18;4.30;;;2.70;;
5333;SDS011;2689;50.954;7.116;2023-04-22T06:16:46;2.77;;;2.40;;
5333;SDS011;2689;50.954;7.116;2023-04-22T06:19:14;4.50;;;3.30;;
5333;SDS011;2689;50.954;7.116;2023-04-22T06:21:41;2.60;;;2.40;;
5333;SDS011;2689;50.954;7.116;2023-04-22T06:24:07;3.00;;;2.43;;
5333;SDS011;2689;50.954;7.116;2023-04-22T06:26:37;3.00;;;2.10;;
5333;SDS011;2689;50.954;7.116;2023-04-22T06:29:04;2.90;;;2.20;;
5333;SDS011;2689;50.954;7.116;2023-04-22T06:31:30;6.37;;;2.30;;
5333;SDS011;2689;50.954;7.116;2023-04-22T06:33:58;3.73;;;2.30;;
5333;SDS011;2689;50.954;7.116;2023-04-22T06:36:25;3.03;;;2.03;;
5333;SDS011;2689;50.954;7.116;2023-04-22T06:38:53;6.13;;;2.53;;
5333;SDS011;2689;50.954;7.116;2023-04-22T06:41:19;2.90;;;2.10;;
5333;SDS011;2689;50.954;7.116;2023-04-22T06:43:47;3.53;;;2.33;;
5333;SDS011;2689;50.954;7.116;2023-04-22T06:46:15;2.33;;;2.13;;
5333;SDS011;2689;50.954;7.116;2023-04-22T06:48:42;4.53;;;2.50;;
5333;SDS011;2689;50.954;7.116;2023-04-22T06:51:10;3.87;;;2.30;;
5333;SDS011;2689;50.954;7.116;2023-04-22T06:53:37;3.63;;;2.17;;
5333;SDS011;2689;50.954;7.116;2023-04-22T06:56:03;3.97;;;2.67;;
5333;SDS011;2689;50.954;7.116;2023-04-22T06:58:31;2.90;;;2.43;;
5333;SDS011;2689;50.954;7.116;2023-04-22T07:00:58;3.47;;;2.43;;
5333;SDS011;2689;50.954;7.116;2023-04-22T07:06:48;3.90;;;1.83;;
5333;SDS011;2689;50.954;7.116;2023-04-22T07:09:14;3.27;;;2.10;;
5333;SDS011;2689;50.954;7.116;2023-04-22T07:11:41;2.70;;;2.20;;
5333;SDS011;2689;50.954;7.116;2023-04-22T07:14:08;2.40;;;1.90;;
5333;SDS011;2689;50.954;7.116;2023-04-22T07:16:35;2.77;;;2.10;;
5333;SDS011;2689;50.954;7.116;2023-04-22T07:19:02;4.43;;;2.30;;
5333;SDS011;2689;50.954;7.116;2023-04-22T07:21:30;5.78;;;2.13;;
5333;SDS011;2689;50.954;7.116;2023-04-22T07:23:58;3.70;;;2.30;;
5333;SDS011;2689;50.954;7.116;2023-04-22T07:26:25;4.83;;;2.50;;
5333;SDS011;2689;50.954;7.116;2023-04-22T07:28:52;2.13;;;1.80;;
5333;SDS011;2689;50.954;7.116;2023-04-22T07:31:18;2.87;;;1.83;;
5333;SDS011;2689;50.954;7.116;2023-04-22T07:33:45;3.23;;;1.97;;
5333;SDS011;2689;50.954;7.116;2023-04-22T07:36:12;5.00;;;3.03;;
5333;SDS011;2689;50.954;7.116;2023-04-22T07:38:39;2.57;;;2.30;;
5333;SDS011;2689;50.954;7.116;2023-04-22T07:41:07;3.80;;;2.40;;
5333;SDS011;2689;50.954;7.116;2023-04-22T07:43:34;3.03;;;1.70;;
5333;SDS011;2689;50.954;7.116;2023-04-22T07:46:00;2.03;;;1.70;;
5333;SDS011;2689;50.954;7.116;2023-04-22T07:48:27;2.40;;;2.03;;
5333;SDS011;2689;50.954;7.116;2023-04-22T07:50:54;2.97;;;2.00;;
5333;SDS011;2689;50.954;7.116;2023-04-22T07:53:22;2.23;;;1.60;;
5333;SDS011;2689;50.954;7.116;2023-04-22T07:55:49;3.77;;;2.23;;
5333;SDS011;2689;50.954;7.116;2023-04-22T07:58:17;3.70;;;1.70;;
5333;SDS011;2689;50.954;7.116;2023-04-22T08:00:44;2.10;;;1.80;;
5333;SDS011;2689;50.954;7.116;2023-04-22T08:03:11;4.43;;;2.67;;
5333;SDS011;2689;50.954;7.116;2023-04-22T08:05:38;3.27;;;1.60;;
5333;SDS011;2689;50.954;7.116;2023-04-22T08:08:04;2.73;;;1.60;;
5333;SDS011;2689;50.954;7.116;2023-04-22T08:10:31;4.10;;;1.73;;
5333;SDS011;2689;50.954;7.116;2023-04-22T08:12:58;2.50;;;1.70;;
5333;SDS011;2689;50.954;7.116;2023-04-22T08:15:26;2.90;;;1.70;;
5333;SDS011;2689;50.954;7.116;2023-04-22T08:17:53;1.80;;;1.27;;
5333;SDS011;2689;50.954;7.116;2023-04-22T08:20:20;2.10;;;1.33;;
5333;SDS011;2689;50.954;7.116;2023-04-22T08:22:47;1.90;;;1.23;;
5333;SDS011;2689;50.954;7.116;2023-04-22T08:25:15;2.60;;;1.47;;
5333;SDS011;2689;50.954;7.116;2023-04-22T08:27:42;3.30;;;1.43;;
5333;SDS011;2689;50.954;7.116;2023-04-22T08:30:09;5.13;;;2.00;;
5333;SDS011;2689;50.954;7.116;2023-04-22T08:32:37;2.30;;;1.20;;
5333;SDS011;2689;50.954;7.116;2023-04-22T08:35:04;2.87;;;1.77;;
5333;SDS011;2689;50.954;7.116;2023-04-22T08:37:31;2.40;;;1.40;;
5333;SDS011;2689;50.954;7.116;2023-04-22T08:39:59;3.80;;;1.60;;
5333;SDS011;2689;50.954;7.116;2023-04-22T08:42:26;2.60;;;1.50;;
5333;SDS011;2689;50.954;7.116;2023-04-22T08:44:53;2.00;;;1.43;;
5333;SDS011;2689;50.954;7.116;2023-04-22T08:47:20;2.47;;;1.60;;
5333;SDS011;2689;50.954;7.116;2023-04-22T08:49:48;3.13;;;1.10;;
5333;SDS011;2689;50.954;7.116;2023-04-22T08:52:16;3.07;;;1.60;;
5333;SDS011;2689;50.954;7.116;2023-04-22T08:54:43;3.93;;;1.60;;
5333;SDS011;2689;50.954;7.116;2023-04-22T08:57:10;3.00;;;1.53;;
5333;SDS011;2689;50.954;7.116;2023-04-22T08:59:38;6.20;;;1.80;;
5333;SDS011;2689;50.954;7.116;2023-04-22T09:02:06;1.97;;;1.43;;
5333;SDS011;2689;50.954;7.116;2023-04-22T09:04:42;6.63;;;1.70;;
5333;SDS011;2689;50.954;7.116;2023-04-22T09:07:13;2.90;;;1.37;;
5333;SDS011;2689;50.954;7.116;2023-04-22T09:09:47;7.93;;;1.93;;
5333;SDS011;2689;50.954;7.116;2023-04-22T09:12:14;2.70;;;1.37;;
5333;SDS011;2689;50.954;7.116;2023-04-22T09:14:43;2.10;;;1.60;;
5333;SDS011;2689;50.954;7.116;2023-04-22T09:17:30;3.30;;;1.63;;
5333;SDS011;2689;50.954;7.116;2023-04-22T09:20:35;3.00;;;1.80;;
5333;SDS011;2689;50.954;7.116;2023-04-22T09:23:10;2.03;;;1.50;;
5333;SDS011;2689;50.954;7.116;2023-04-22T09:25:38;2.53;;;1.47;;
5333;SDS011;2689;50.954;7.116;2023-04-22T09:28:10;2.03;;;1.30;;
5333;SDS011;2689;50.954;7.116;2023-04-22T09:30:38;2.87;;;1.30;;
5333;SDS011;2689;50.954;7.116;2023-04-22T09:33:05;2.03;;;1.30;;
5333;SDS011;2689;50.954;7.116;2023-04-22T09:35:33;3.10;;;1.60;;
5333;SDS011;2689;50.954;7.116;2023-04-22T09:38:06;2.77;;;1.50;;
5333;SDS011;2689;50.954;7.116;2023-04-22T09:40:45;2.87;;;1.60;;
5333;SDS011;2689;50.954;7.116;2023-04-22T09:43:13;5.40;;;1.93;;
5333;SDS011;2689;50.954;7.116;2023-04-22T09:45:43;2.10;;;1.60;;
5333;SDS011;2689;50.954;7.116;2023-04-22T09:48:11;2.10;;;1.60;;
5333;SDS011;2689;50.954;7.116;2023-04-22T09:50:43;3.13;;;1.77;;
5333;SDS011;2689;50.954;7.116;2023-04-22T09:53:12;2.40;;;1.67;;
5333;SDS011;2689;50.954;7.116;2023-04-22T09:55:41;2.63;;;1.60;;
5333;SDS011;2689;50.954;7.116;2023-04-22T09:58:10;1.93;;;1.47;;
5333;SDS011;2689;50.954;7.116;2023-04-22T10:00:39;2.10;;;1.40;;
5333;SDS011;2689;50.954;7.116;2023-04-22T10:03:08;3.50;;;2.20;;
5333;SDS011;2689;50.954;7.116;2023-04-22T10:05:35;2.03;;;1.23;;
5333;SDS011;2689;50.954;7.116;2023-04-22T10:08:02;3.30;;;1.97;;
5333;SDS011;2689;50.954;7.116;2023-04-22T10:10:31;3.97;;;1.67;;
5333;SDS011;2689;50.954;7.116;2023-04-22T10:12:58;3.57;;;1.40;;
5333;SDS011;2689;50.954;7.116;2023-04-22T10:15:25;3.23;;;1.47;;
5333;SDS011;2689;50.954;7.116;2023-04-22T10:17:56;2.73;;;1.53;;
5333;SDS011;2689;50.954;7.116;2023-04-22T10:20:24;2.70;;;1.60;;
5333;SDS011;2689;50.954;7.116;2023-04-22T10:22:54;2.90;;;1.70;;
5333;SDS011;2689;50.954;7.116;2023-04-22T10:25:22;2.87;;;1.47;;
5333;SDS011;2689;50.954;7.116;2023-04-22T10:27:55;6.03;;;4.00;;
5333;SDS011;2689;50.954;7.116;2023-04-22T10:30:28;2.10;;;1.60;;
5333;SDS011;2689;50.954;7.116;2023-04-22T10:33:06;1.83;;;1.57;;
5333;SDS011;2689;50.954;7.116;2023-04-22T10:36:09;1.93;;;1.60;;
5333;SDS011;2689;50.954;7.116;2023-04-22T10:39:08;3.53;;;2.00;;
5333;SDS011;2689;50.954;7.116;2023-04-22T10:41:40;3.33;;;1.80;;
5333;SDS011;2689;50.954;7.116;2023-04-22T10:44:18;2.53;;;2.10;;
5333;SDS011;2689;50.954;7.116;2023-04-22T10:46:55;2.63;;;1.50;;
5333;SDS011;2689;50.954;7.116;2023-04-22T10:49:25;3.07;;;1.60;;
5333;SDS011;2689;50.954;7.116;2023-04-22T10:51:56;11.17;;;10.07;;
5333;SDS011;2689;50.954;7.116;2023-04-22T11:03:16;4.87;;;1.67;;
5333;SDS011;2689;50.954;7.116;2023-04-22T11:05:44;2.80;;;1.77;;
5333;SDS011;2689;50.954;7.116;2023-04-22T11:08:12;2.13;;;1.53;;
5333;SDS011;2689;50.954;7.116;2023-04-22T11:10:46;4.30;;;2.20;;
5333;SDS011;2689;50.954;7.116;2023-04-22T11:13:15;2.60;;;1.47;;
5333;SDS011;2689;50.954;7.116;2023-04-22T11:15:45;3.50;;;1.90;;
5333;SDS011;2689;50.954;7.116;2023-04-22T11:18:17;2.80;;;1.70;;
5333;SDS011;2689;50.954;7.116;2023-04-22T11:20:45;2.83;;;1.70;;
5333;SDS011;2689;50.954;7.116;2023-04-22T11:23:22;2.20;;;1.70;;
5333;SDS011;2689;50.954;7.116;2023-04-22T11:25:57;4.80;;;1.63;;
5333;SDS011;2689;50.954;7.116;2023-04-22T11:28:25;4.60;;;1.50;;
5333;SDS011;2689;50.954;7.116;2023-04-22T11:30:53;3.20;;;1.70;;
5333;SDS011;2689;50.954;7.116;2023-04-22T11:33:27;4.60;;;1.90;;
5333;SDS011;2689;50.954;7.116;2023-04-22T11:35:53;2.60;;;1.43;;
5333;SDS011;2689;50.954;7.116;2023-04-22T11:38:22;3.43;;;1.90;;
5333;SDS011;2689;50.954;7.116;2023-04-22T11:40:49;2.40;;;1.47;;
5333;SDS011;2689;50.954;7.116;2023-04-22T11:43:16;7.20;;;2.40;;
5333;SDS011;2689;50.954;7.116;2023-04-22T11:45:43;3.17;;;1.77;;
5333;SDS011;2689;50.954;7.116;2023-04-22T11:48:12;2.23;;;2.00;;
5333;SDS011;2689;50.954;7.116;2023-04-22T11:50:41;6.03;;;1.80;;
5333;SDS011;2689;50.954;7.116;2023-04-22T11:53:13;4.77;;;2.03;;
5333;SDS011;2689;50.954;7.116;2023-04-22T11:55:41;5.20;;;2.07;;
5333;SDS011;2689;50.954;7.116;2023-04-22T11:58:09;3.63;;;2.10;;
5333;SDS011;2689;50.954;7.116;2023-04-22T12:00:39;2.10;;;1.70;;
5333;SDS011;2689;50.954;7.116;2023-04-22T12:03:11;6.33;;;2.03;;
5333;SDS011;2689;50.954;7.116;2023-04-22T12:05:42;4.00;;;2.23;;
5333;SDS011;2689;50.954;7.116;2023-04-22T12:08:10;3.47;;;2.57;;
5333;SDS011;2689;50.954;7.116;2023-04-22T12:10:38;4.33;;;3.33;;
5333;SDS011;2689;50.954;7.116;2023-04-22T12:13:06;2.50;;;1.73;;
5333;SDS011;2689;50.954;7.116;2023-04-22T12:15:41;3.90;;;2.23;;
5333;SDS011;2689;50.954;7.116;2023-04-22T12:18:08;5.97;;;2.83;;
5333;SDS011;2689;50.954;7.116;2023-04-22T12:20:37;3.97;;;2.03;;
5333;SDS011;2689;50.954;7.116;2023-04-22T12:23:04;3.47;;;2.17;;
5333;SDS011;2689;50.954;7.116;2023-04-22T12:25:36;3.07;;;2.03;;
5333;SDS011;2689;50.954;7.116;2023-04-22T12:28:03;4.27;;;2.27;;
5333;SDS011;2689;50.954;7.116;2023-04-22T12:30:30;3.07;;;2.30;;
5333;SDS011;2689;50.954;7.116;2023-04-22T12:32:57;2.20;;;1.70;;
5333;SDS011;2689;50.954;7.116;2023-04-22T12:35:23;5.00;;;1.90;;
5333;SDS011;2689;50.954;7.116;2023-04-22T12:37:52;4.17;;;2.10;;
5333;SDS011;2689;50.954;7.116;2023-04-22T12:40:19;5.03;;;2.43;;
5333;SDS011;2689;50.954;7.116;2023-04-22T12:42:45;3.50;;;2.30;;
5333;SDS011;2689;50.954;7.116;2023-04-22T12:45:12;3.73;;;2.07;;
5333;SDS011;2689;50.954;7.116;2023-04-22T12:47:40;4.60;;;2.13;;
5333;SDS011;2689;50.954;7.116;2023-04-22T12:50:07;3.03;;;2.43;;
5333;SDS011;2689;50.954;7.116;2023-04-22T12:52:34;4.40;;;2.17;;
5333;SDS011;2689;50.954;7.116;2023-04-22T12:55:02;4.03;;;2.03;;
5333;SDS011;2689;50.954;7.116;2023-04-22T12:57:29;3.20;;;2.13;;
5333;SDS011;2689;50.954;7.116;2023-04-22T12:59:56;5.67;;;2.20;;
5333;SDS011;2689;50.954;7.116;2023-04-22T13:02:23;5.67;;;2.30;;
5333;SDS011;2689;50.954;7.116;2023-04-22T13:04:50;3.70;;;2.33;;
5333;SDS011;2689;50.954;7.116;2023-04-22T13:07:17;3.37;;;2.33;;
5333;SDS011;2689;50.954;7.116;2023-04-22T13:09:44;4.33;;;1.80;;
5333;SDS011;2689;50.954;7.116;2023-04-22T13:12:12;3.90;;;1.90;;
5333;SDS011;2689;50.954;7.116;2023-04-22T13:14:39;4.53;;;2.10;;
5333;SDS011;2689;50.954;7.116;2023-04-22T13:17:06;4.30;;;1.60;;
5333;SDS011;2689;50.954;7.116;2023-04-22T13:19:33;3.47;;;2.20;;
5333;SDS011;2689;50.954;7.116;2023-04-22T13:22:00;4.83;;;1.90;;
5333;SDS011;2689;50.954;7.116;2023-04-22T13:24:27;4.30;;;2.03;;
5333;SDS011;2689;50.954;7.116;2023-04-22T13:26:54;2.67;;;1.80;;
5333;SDS011;2689;50.954;7.116;2023-04-22T13:29:22;3.90;;;1.90;;
5333;SDS011;2689;50.954;7.116;2023-04-22T13:31:50;4.90;;;1.83;;
5333;SDS011;2689;50.954;7.116;2023-04-22T13:34:16;3.90;;;2.10;;
5333;SDS011;2689;50.954;7.116;2023-04-22T13:36:43;3.13;;;2.20;;
5333;SDS011;2689;50.954;7.116;2023-04-22T13:39:10;5.03;;;2.00;;
5333;SDS011;2689;50.954;7.116;2023-04-22T13:41:37;3.83;;;2.03;;
5333;SDS011;2689;50.954;7.116;2023-04-22T13:44:04;3.00;;;1.80;;
5333;SDS011;2689;50.954;7.116;2023-04-22T13:46:32;3.60;;;1.80;;
5333;SDS011;2689;50.954;7.116;2023-04-22T13:48:58;5.90;;;2.00;;
5333;SDS011;2689;50.954;7.116;2023-04-22T13:51:25;2.63;;;1.90;;
5333;SDS011;2689;50.954;7.116;2023-04-22T13:53:52;3.83;;;1.93;;
5333;SDS011;2689;50.954;7.116;2023-04-22T13:56:19;4.10;;;2.20;;
5333;SDS011;2689;50.954;7.116;2023-04-22T13:58:45;2.77;;;2.03;;
5333;SDS011;2689;50.954;7.116;2023-04-22T14:01:12;2.93;;;2.10;;
5333;SDS011;2689;50.954;7.116;2023-04-22T14:03:41;3.00;;;2.13;;
5333;SDS011;2689;50.954;7.116;2023-04-22T14:06:07;3.53;;;1.97;;
5333;SDS011;2689;50.954;7.116;2023-04-22T14:08:35;3.40;;;2.20;;
5333;SDS011;2689;50.954;7.116;2023-04-22T14:11:02;3.17;;;2.20;;
5333;SDS011;2689;50.954;7.116;2023-04-22T14:13:30;4.33;;;1.97;;
5333;SDS011;2689;50.954;7.116;2023-04-22T14:15:57;2.70;;;1.73;;
5333;SDS011;2689;50.954;7.116;2023-04-22T14:18:24;2.30;;;1.77;;
5333;SDS011;2689;50.954;7.116;2023-04-22T14:20:52;2.97;;;2.10;;
5333;SDS011;2689;50.954;7.116;2023-04-22T14:23:19;10.83;;;6.77;;
5333;SDS011;2689;50.954;7.116;2023-04-22T14:25:46;4.17;;;2.80;;
5333;SDS011;2689;50.954;7.116;2023-04-22T14:28:15;6.53;;;4.50;;
5333;SDS011;2689;50.954;7.116;2023-04-22T14:30:42;3.00;;;2.07;;
5333;SDS011;2689;50.954;7.116;2023-04-22T14:33:09;2.90;;;1.70;;
5333;SDS011;2689;50.954;7.116;2023-04-22T14:35:45;4.40;;;2.40;;
5333;SDS011;2689;50.954;7.116;2023-04-22T14:38:13;3.17;;;2.40;;
5333;SDS011;2689;50.954;7.116;2023-04-22T14:40:40;4.20;;;2.53;;
5333;SDS011;2689;50.954;7.116;2023-04-22T14:43:07;3.67;;;2.37;;
5333;SDS011;2689;50.954;7.116;2023-04-22T14:45:34;4.40;;;2.40;;
5333;SDS011;2689;50.954;7.116;2023-04-22T14:48:00;4.87;;;2.40;;
5333;SDS011;2689;50.954;7.116;2023-04-22T14:50:27;8.60;;;4.10;;
5333;SDS011;2689;50.954;7.116;2023-04-22T14:52:54;7.03;;;2.50;;
5333;SDS011;2689;50.954;7.116;2023-04-22T14:55:36;8.47;;;3.13;;
5333;SDS011;2689;50.954;7.116;2023-04-22T14:58:05;13.20;;;5.60;;
5333;SDS011;2689;50.954;7.116;2023-04-22T15:00:32;4.83;;;2.63;;
5333;SDS011;2689;50.954;7.116;2023-04-22T15:02:59;5.47;;;3.30;;
5333;SDS011;2689;50.954;7.116;2023-04-22T15:05:27;3.70;;;2.40;;
5333;SDS011;2689;50.954;7.116;2023-04-22T15:07:54;5.17;;;3.53;;
5333;SDS011;2689;50.954;7.116;2023-04-22T15:10:23;5.97;;;3.20;;
5333;SDS011;2689;50.954;7.116;2023-04-22T15:12:55;2.77;;;2.10;;
5333;SDS011;2689;50.954;7.116;2023-04-22T15:15:25;2.73;;;2.00;;
5333;SDS011;2689;50.954;7.116;2023-04-22T15:17:53;3.57;;;2.37;;
5333;SDS011;2689;50.954;7.116;2023-04-22T15:20:22;2.23;;;1.77;;
5333;SDS011;2689;50.954;7.116;2023-04-22T15:22:49;5.40;;;2.13;;
5333;SDS011;2689;50.954;7.116;2023-04-22T15:25:28;3.43;;;2.30;;
5333;SDS011;2689;50.954;7.116;2023-04-22T15:28:04;4.23;;;1.67;;
5333;SDS011;2689;50.954;7.116;2023-04-22T15:30:38;2.53;;;1.60;;
5333;SDS011;2689;50.954;7.116;2023-04-22T15:33:05;4.57;;;1.60;;